Terminal Aerodrome Forecast
Issued by NWS Omaha/Valley, NE

Home | Current Version | Previous Version | Text Only | Print | Product List | Glossary On
Versions: 1 2 3 4 5 6 7 8 9 10 11 12 13 14 15 16 17 18 19 20 21 22 23 24 25 26 27 28 29 30 31 32 33
000
FTUS43 KOAX 170520
TAFLNK
TAF
KLNK 170520Z 1706/1806 15007KT P6SM BKN040
     FM171000 VRB03KT P6SM SCT015 BKN025
      TEMPO 1710/1714 3SM BR BKN015
     FM171500 11005KT P6SM SCT030
     FM171900 08006KT P6SM SCT040
     FM180200 07005KT P6SM SCT030 BKN250=

USA.gov is the U.S. government's official web portal to all federal, state and local government web resources and services.